createdAt,value
2022-11-26T00:04:16.498Z,10.70
2022-11-26T00:09:24.890Z,10.60
2022-11-26T00:14:27.647Z,10.60
2022-11-26T00:19:29.443Z,10.60
2022-11-26T00:24:31.397Z,10.50
2022-11-26T00:29:33.239Z,10.50
2022-11-26T00:34:35.333Z,10.50
2022-11-26T00:39:37.367Z,10.50
2022-11-26T00:44:39.560Z,10.50
2022-11-26T00:49:41.669Z,10.50
2022-11-26T00:54:43.591Z,10.50
2022-11-26T00:59:45.478Z,10.40
2022-11-26T01:04:47.319Z,10.40
2022-11-26T01:09:49.665Z,10.40
2022-11-26T01:14:51.559Z,10.30
2022-11-26T01:19:53.636Z,10.20
2022-11-26T01:24:57.201Z,10.10
2022-11-26T01:29:59.611Z,10.00
2022-11-26T01:35:02.303Z,9.90
2022-11-26T01:40:31.611Z,9.80
2022-11-26T01:45:36.852Z,9.60
2022-11-26T01:50:53.182Z,9.40
2022-11-26T01:56:00.413Z,9.40
2022-11-26T02:01:02.806Z,9.30
2022-11-26T02:06:11.132Z,9.30
2022-11-26T02:11:21.693Z,9.30
2022-11-26T02:16:40.100Z,9.40
2022-11-26T02:21:48.159Z,9.50
2022-11-26T02:27:12.326Z,9.40
2022-11-26T02:32:39.455Z,9.30
2022-11-26T02:37:52.725Z,9.30
2022-11-26T02:42:54.913Z,9.40
2022-11-26T02:48:00.478Z,9.50
2022-11-26T02:53:04.775Z,9.60
2022-11-26T02:58:07.364Z,9.70
2022-11-26T03:03:24.011Z,9.80
2022-11-26T03:08:27.734Z,9.70
2022-11-26T03:13:33.050Z,9.70
2022-11-26T03:18:35.173Z,9.70
2022-11-26T03:23:38.058Z,9.60
2022-11-26T03:28:40.983Z,9.70
2022-11-26T03:33:43.816Z,9.70
2022-11-26T03:38:46.186Z,9.90
2022-11-26T03:43:49.634Z,9.90
2022-11-26T03:48:52.619Z,9.90
2022-11-26T03:59:35.766Z,9.90
2022-11-26T04:04:38.365Z,9.90
2022-11-26T04:09:41.049Z,10.00
2022-11-26T04:14:43.487Z,10.00
2022-11-26T04:19:45.772Z,10.10
2022-11-26T04:24:47.897Z,10.10
2022-11-26T04:29:50.389Z,10.20
2022-11-26T04:34:52.599Z,10.30
2022-11-26T04:39:55.069Z,10.30
2022-11-26T04:44:57.359Z,10.40
2022-11-26T04:50:00.431Z,10.40
2022-11-26T04:55:02.913Z,10.40
2022-11-26T05:00:07.658Z,10.40
2022-11-26T05:05:10.401Z,10.50
2022-11-26T05:10:13.279Z,10.50
2022-11-26T05:15:21.355Z,10.50
2022-11-26T05:20:24.589Z,10.50
2022-11-26T05:25:28.197Z,10.40
2022-11-26T05:30:31.015Z,10.40
2022-11-26T05:35:33.365Z,10.30
2022-11-26T05:40:35.777Z,10.30
2022-11-26T05:45:38.242Z,10.20
2022-11-26T05:50:40.982Z,10.00
2022-11-26T05:55:43.632Z,10.00
2022-11-26T06:00:45.983Z,10.00
2022-11-26T06:05:48.553Z,10.10
2022-11-26T06:10:51.249Z,10.10
2022-11-26T06:15:54.486Z,10.10
2022-11-26T06:21:01.443Z,10.20
2022-11-26T06:26:10.069Z,10.20
2022-11-26T06:31:15.398Z,10.30
2022-11-26T06:36:21.259Z,10.30
2022-11-26T06:41:25.733Z,10.30
2022-11-26T06:46:28.845Z,10.40
2022-11-26T06:51:37.058Z,10.40
2022-11-26T06:56:40.238Z,10.40
2022-11-26T07:01:42.769Z,10.40
2022-11-26T07:06:46.503Z,10.30
2022-11-26T07:11:50.193Z,10.30
2022-11-26T07:16:52.238Z,10.30
2022-11-26T07:21:54.375Z,10.40
2022-11-26T07:26:56.297Z,10.50
2022-11-26T07:31:58.277Z,10.50
2022-11-26T07:37:01.130Z,10.50
2022-11-26T07:42:03.070Z,10.70
2022-11-26T07:47:05.048Z,10.80
2022-11-26T07:52:06.982Z,10.70
2022-11-26T07:57:08.833Z,10.70
2022-11-26T08:02:17.564Z,10.70
2022-11-26T08:07:24.527Z,10.70
2022-11-26T08:12:30.736Z,10.70
2022-11-26T08:17:32.523Z,10.80
2022-11-26T08:22:34.310Z,10.80
2022-11-26T08:27:36.187Z,10.80
2022-11-26T08:32:38.114Z,10.70
2022-11-26T08:37:42.394Z,10.70
2022-11-26T08:42:44.440Z,10.70
2022-11-26T08:47:46.297Z,10.60
2022-11-26T08:52:48.139Z,10.60
2022-11-26T08:57:49.954Z,10.50
2022-11-26T09:02:52.077Z,10.40
2022-11-26T09:07:54.696Z,10.40
2022-11-26T09:12:56.581Z,10.40
2022-11-26T09:17:58.357Z,10.50
2022-11-26T09:23:00.175Z,10.60
2022-11-26T09:28:02.011Z,10.70
2022-11-26T09:33:04.029Z,10.80
2022-11-26T09:38:05.951Z,10.80
2022-11-26T09:43:42.372Z,10.90
2022-11-26T09:48:44.456Z,11.00
2022-11-26T09:53:50.228Z,11.00
2022-11-26T09:58:58.050Z,11.10
2022-11-26T10:04:00.222Z,11.20
2022-11-26T10:09:02.038Z,11.30
2022-11-26T10:14:15.632Z,11.30
2022-11-26T10:19:50.176Z,11.40
2022-11-26T10:24:53.183Z,11.50
2022-11-26T10:29:59.535Z,11.50
2022-11-26T10:35:01.506Z,11.50
2022-11-26T10:40:21.409Z,11.50
2022-11-26T10:45:26.019Z,11.50
2022-11-26T10:55:52.283Z,11.70
2022-11-26T11:00:55.409Z,11.80
2022-11-26T11:06:35.995Z,11.80
2022-11-26T11:11:38.024Z,11.90
2022-11-26T11:16:43.964Z,11.90
2022-11-26T11:21:48.338Z,11.90
2022-11-26T11:26:55.362Z,12.00
2022-11-26T11:31:57.985Z,12.10
2022-11-26T11:37:18.800Z,12.30
2022-11-26T11:42:31.148Z,12.70
2022-11-26T11:47:44.178Z,13.00
2022-11-26T11:52:48.260Z,13.60
2022-11-26T11:57:58.957Z,14.00
2022-11-26T12:03:24.495Z,14.20
2022-11-26T12:09:03.682Z,14.70
2022-11-26T12:14:14.622Z,15.00
2022-11-26T12:19:39.350Z,15.40
2022-11-26T12:24:44.908Z,15.50
2022-11-26T12:29:53.551Z,15.50
2022-11-26T12:35:04.379Z,15.70
2022-11-26T12:40:18.750Z,15.80
2022-11-26T12:45:39.583Z,15.90
2022-11-26T12:51:19.973Z,16.10
2022-11-26T12:57:13.789Z,16.40
2022-11-26T13:02:51.218Z,16.40
2022-11-26T13:08:02.551Z,16.50
2022-11-26T13:13:30.638Z,16.50
2022-11-26T13:18:49.503Z,16.20
2022-11-26T13:24:18.956Z,16.00
2022-11-26T13:29:43.746Z,15.70
2022-11-26T13:34:54.394Z,15.20
2022-11-26T13:40:23.139Z,15.00
2022-11-26T13:45:49.567Z,14.90
2022-11-26T13:51:11.391Z,15.00
2022-11-26T13:56:23.434Z,15.00
2022-11-26T14:01:52.214Z,14.90
2022-11-26T14:07:14.500Z,14.90
2022-11-26T14:12:19.216Z,15.00
2022-11-26T14:17:32.497Z,15.00
2022-11-26T14:22:37.820Z,15.10
2022-11-26T14:27:41.643Z,15.00
2022-11-26T14:33:03.452Z,15.00
2022-11-26T14:38:21.564Z,14.90
2022-11-26T14:43:23.984Z,14.90
2022-11-26T14:48:27.880Z,14.90
2022-11-26T14:53:33.528Z,15.10
2022-11-26T14:58:46.107Z,15.10
2022-11-26T15:04:00.309Z,15.20
2022-11-26T15:09:15.158Z,15.10
2022-11-26T15:14:47.394Z,15.00
2022-11-26T15:19:54.180Z,14.90
2022-11-26T15:24:57.437Z,14.70
2022-11-26T15:29:59.392Z,14.60
2022-11-26T15:35:03.122Z,14.60
2022-11-26T15:40:09.374Z,14.50
2022-11-26T15:45:16.965Z,14.50
2022-11-26T15:50:32.268Z,14.50
2022-11-26T15:55:36.691Z,14.40
2022-11-26T16:01:05.946Z,14.30
2022-11-26T16:06:24.059Z,14.20
2022-11-26T16:11:26.271Z,14.10
2022-11-26T16:22:26.932Z,13.50
2022-11-26T16:27:35.351Z,13.20
2022-11-26T16:32:45.494Z,13.20
2022-11-26T16:55:19.730Z,12.70
2022-11-26T17:00:44.330Z,12.50
2022-11-26T17:05:49.675Z,12.20
2022-11-26T17:10:55.436Z,11.90
2022-11-26T17:15:59.758Z,11.80
2022-11-26T17:21:02.499Z,11.60
2022-11-26T17:26:16.845Z,11.50
2022-11-26T17:31:20.676Z,11.40
2022-11-26T17:36:26.256Z,11.30
2022-11-26T17:41:31.448Z,11.20
2022-11-26T17:46:48.120Z,11.00
2022-11-26T17:51:57.052Z,10.80
2022-11-26T17:57:01.427Z,10.70
2022-11-26T18:02:08.018Z,10.50
2022-11-26T18:07:16.480Z,10.50
2022-11-26T18:12:25.186Z,10.60
2022-11-26T18:17:31.049Z,10.60
2022-11-26T18:22:33.396Z,10.50
2022-11-26T18:27:36.163Z,10.50
2022-11-26T18:32:41.325Z,10.50
2022-11-26T18:37:44.022Z,10.60
2022-11-26T18:42:52.472Z,10.50
2022-11-26T18:48:00.220Z,10.50
2022-11-26T18:53:03.934Z,10.30
2022-11-26T18:58:08.394Z,10.30
2022-11-26T19:03:13.898Z,10.20
2022-11-26T19:08:19.439Z,10.20
2022-11-26T19:13:22.090Z,10.10
2022-11-26T19:18:29.514Z,10.10
2022-11-26T19:23:34.994Z,10.00
2022-11-26T19:28:37.508Z,9.90
2022-11-26T19:33:42.177Z,9.90
2022-11-26T19:38:45.725Z,9.80
2022-11-26T19:43:50.494Z,9.70
2022-11-26T19:48:53.628Z,9.60
2022-11-26T19:53:56.858Z,9.50
2022-11-26T19:59:00.704Z,9.40
2022-11-26T20:04:06.605Z,9.40
2022-11-26T20:09:12.928Z,9.30
2022-11-26T20:14:15.660Z,9.10
2022-11-26T20:19:18.664Z,9.00
2022-11-26T20:24:26.510Z,8.90
2022-11-26T20:29:28.533Z,8.80
2022-11-26T20:34:36.258Z,8.60
2022-11-26T20:39:39.628Z,8.60
2022-11-26T20:44:46.655Z,8.60
2022-11-26T20:49:48.810Z,8.60
2022-11-26T20:54:53.889Z,8.60
2022-11-26T20:59:56.077Z,8.50
2022-11-26T21:05:00.148Z,8.40
2022-11-26T21:10:02.152Z,8.40
2022-11-26T21:15:05.359Z,8.20
2022-11-26T21:20:07.895Z,8.30
2022-11-26T21:25:10.100Z,8.30
2022-11-26T21:30:12.612Z,8.40
2022-11-26T21:35:14.555Z,8.40
2022-11-26T21:40:16.543Z,8.30
2022-11-26T21:45:18.701Z,8.30
2022-11-26T21:50:20.575Z,8.20
2022-11-26T21:55:22.549Z,8.20
2022-11-26T22:00:24.417Z,8.10
2022-11-26T22:05:26.304Z,8.10
2022-11-26T22:10:33.313Z,8.00
2022-11-26T22:15:42.265Z,7.90
2022-11-26T22:20:53.294Z,7.80
2022-11-26T22:25:55.103Z,7.80
2022-11-26T22:30:57.265Z,7.80
2022-11-26T22:36:01.587Z,7.80
2022-11-26T22:41:05.045Z,7.80
2022-11-26T22:46:10.145Z,7.80
2022-11-26T22:51:12.439Z,7.80
2022-11-26T22:56:14.310Z,7.80
2022-11-26T23:01:29.373Z,7.80
2022-11-26T23:06:32.727Z,7.80
2022-11-26T23:11:38.633Z,7.70
2022-11-26T23:16:43.359Z,7.60
2022-11-26T23:21:46.777Z,7.50
2022-11-26T23:26:48.767Z,7.50
2022-11-26T23:31:50.865Z,7.50
2022-11-26T23:36:52.748Z,7.50
2022-11-26T23:41:54.530Z,7.50
2022-11-26T23:46:56.379Z,7.50
2022-11-26T23:51:58.194Z,7.50
2022-11-26T23:57:00.012Z,7.50
